Revelstoke, Canada
Current Conditions -  °F | °C
As of 6:53 AM on Sunday 23 Nov 2014 (Local Time) from CYRV Reporting Station
Overcast Overcast  
Wind Chill: 30°   Ceiling: 1100
Heat Index: 34°   Visibility: 9mi
Dew Point: 34°   Wind: 5mph
Humidity: 100%   Direction: 310°NW
Pressure: 29.97"   Gusts: NA
Location:  51.01°N, 118.21°W
Report Text: CYRV 231453Z AUTO 31004KT 290V020 9SM OVC011 01/01 A2997 RMK SLP167
Loading
Personal Weather Stations






























Interactive Weather Map New forecast layout! Learn more

10-Day Weather Forecast

Advertisements
Track Severe Weather on mobile